Time;durP1;ratioP1;P1;durP2;ratioP2;P2;SDS_P1;SDS_P2;PMS_P1;PMS_P2;Temp;Humidity;BMP_temperature;BMP_pressure;BME280_temperature;BME280_humidity;BME280_pressure;Samples;Min_cycle;Max_cycle;Signal;HPM_P1;HPM_P2
2022/05/31 00:00:25;;;;;;;20.02;8.20;;;28.40;93.20;;;;;;5102172;28;20494;-55
2022/05/31 00:02:53;;;;;;;13.63;7.63;;;28.40;92.90;;;;;;5101627;28;20046;-58
2022/05/31 00:05:19;;;;;;;11.55;6.70;;;28.40;92.80;;;;;;5101889;28;20040;-56
2022/05/31 00:07:46;;;;;;;16.17;8.02;;;28.40;92.70;;;;;;5102628;28;20026;-54
2022/05/31 00:10:14;;;;;;;12.35;7.72;;;28.40;92.70;;;;;;5102582;28;20030;-55
2022/05/31 00:12:42;;;;;;;14.93;8.65;;;28.40;92.70;;;;;;5102625;28;20053;-56
2022/05/31 00:15:11;;;;;;;16.25;8.85;;;28.40;92.80;;;;;;5104189;28;20264;-55
2022/05/31 00:17:37;;;;;;;14.55;7.70;;;28.40;92.80;;;;;;5105670;28;20012;-55
2022/05/31 00:20:06;;;;;;;10.27;7.07;;;28.40;92.80;;;;;;5108288;28;20047;-55
2022/05/31 00:22:35;;;;;;;12.07;7.05;;;28.40;92.80;;;;;;5108158;28;20079;-53
2022/05/31 00:25:02;;;;;;;9.27;6.88;;;28.40;92.70;;;;;;5108010;28;20035;-55
2022/05/31 00:27:29;;;;;;;12.38;6.50;;;28.40;92.70;;;;;;5107889;28;20050;-55
2022/05/31 00:29:56;;;;;;;10.30;5.80;;;28.40;92.60;;;;;;5108179;28;20024;-53
2022/05/31 00:32:32;;;;;;;10.15;5.82;;;28.30;92.60;;;;;;5107648;28;20048;-55
2022/05/31 00:35:04;;;;;;;10.63;6.25;;;28.30;92.60;;;;;;5108024;28;20046;-55
2022/05/31 00:37:33;;;;;;;13.73;6.65;;;28.30;92.50;;;;;;5107913;28;20046;-64
2022/05/31 00:40:00;;;;;;;21.63;6.75;;;28.30;92.60;;;;;;5108323;28;20025;-55
2022/05/31 00:42:27;;;;;;;18.33;8.07;;;28.30;92.60;;;;;;5107869;28;20012;-54
2022/05/31 00:44:54;;;;;;;36.15;10.57;;;28.30;92.60;;;;;;5107433;28;20020;-54
2022/05/31 00:47:32;;;;;;;51.83;12.95;;;28.30;92.50;;;;;;5107292;28;20024;-55
2022/05/31 00:50:06;;;;;;;33.38;10.63;;;28.30;92.50;;;;;;5107434;28;20028;-54
2022/05/31 00:52:40;;;;;;;17.95;7.85;;;28.30;92.50;;;;;;5107570;28;20024;-55
2022/05/31 00:55:09;;;;;;;14.23;7.57;;;28.30;92.50;;;;;;5107324;28;20358;-60
2022/05/31 00:57:39;;;;;;;14.38;7.13;;;28.20;92.40;;;;;;5107190;28;20024;-58
2022/05/31 01:00:11;;;;;;;12.45;6.32;;;28.20;92.40;;;;;;5107261;28;20069;-54
2022/05/31 01:02:39;;;;;;;12.98;5.78;;;28.20;92.40;;;;;;5107198;28;20023;-56
2022/05/31 01:05:08;;;;;;;9.80;5.30;;;28.20;92.30;;;;;;5107395;28;20081;-54
2022/05/31 01:07:35;;;;;;;13.35;4.88;;;28.20;92.30;;;;;;5106935;28;20043;-55
2022/05/31 01:10:08;;;;;;;11.75;5.15;;;28.20;92.10;;;;;;5107215;28;20292;-55
2022/05/31 01:12:37;;;;;;;11.60;4.50;;;28.20;92.00;;;;;;5106653;28;20078;-55
2022/05/31 01:15:06;;;;;;;7.50;4.05;;;28.10;92.00;;;;;;5106781;28;20023;-55
2022/05/31 01:17:33;;;;;;;10.82;4.20;;;28.10;92.00;;;;;;5106615;28;20061;-57
2022/05/31 01:20:07;;;;;;;8.48;3.85;;;28.10;92.00;;;;;;5107192;28;20311;-54
2022/05/31 01:22:43;;;;;;;6.40;3.75;;;28.10;92.00;;;;;;5106297;28;20095;-53
2022/05/31 01:25:24;;;;;;;8.32;3.85;;;28.10;92.00;;;;;;5106423;28;20048;-56
2022/05/31 01:28:12;;;;;;;7.63;4.10;;;28.10;92.00;;;;;;5106158;28;20020;-55
2022/05/31 01:31:10;;;;;;;7.85;4.18;;;28.10;92.00;;;;;;5106415;28;20028;-56
2022/05/31 01:33:45;;;;;;;9.90;4.25;;;28.00;91.80;;;;;;5106153;28;20023;-54
2022/05/31 01:36:19;;;;;;;7.97;3.65;;;28.00;91.80;;;;;;5105562;28;20111;-56
2022/05/31 01:38:56;;;;;;;7.07;3.38;;;28.00;91.80;;;;;;5106068;28;20054;-57
2022/05/31 01:41:39;;;;;;;7.32;3.03;;;28.00;91.70;;;;;;5088824;28;20091;-56
2022/05/31 01:44:10;;;;;;;7.30;3.25;;;28.00;91.60;;;;;;5106422;28;20024;-56
2022/05/31 01:46:37;;;;;;;7.95;3.40;;;28.00;91.60;;;;;;5105886;28;20016;-55
2022/05/31 01:49:07;;;;;;;4.50;2.97;;;27.90;91.60;;;;;;5106092;28;20318;-59
2022/05/31 01:51:36;;;;;;;6.50;2.80;;;27.90;91.60;;;;;;5105847;28;20032;-58
2022/05/31 01:54:04;;;;;;;6.85;3.30;;;27.90;91.70;;;;;;5106129;28;20043;-57
2022/05/31 01:56:31;;;;;;;11.82;4.00;;;27.90;91.70;;;;;;5105832;28;20229;-59
2022/05/31 01:58:59;;;;;;;7.72;3.97;;;27.80;91.60;;;;;;5106171;28;20079;-61
2022/05/31 02:01:27;;;;;;;8.48;3.88;;;27.90;91.60;;;;;;5106252;28;20031;-57
2022/05/31 02:03:54;;;;;;;6.03;4.15;;;27.80;91.70;;;;;;5106174;28;20060;-57
2022/05/31 02:06:39;;;;;;;12.15;4.82;;;27.90;91.70;;;;;;5105873;28;20033;-57
2022/05/31 02:09:10;;;;;;;12.98;4.13;;;27.90;91.80;;;;;;5105680;28;20020;-59
2022/05/31 02:11:38;;;;;;;7.03;3.90;;;27.90;91.80;;;;;;5105122;28;20024;-56
2022/05/31 02:14:06;;;;;;;7.82;4.43;;;27.80;91.80;;;;;;5106112;28;20020;-56
2022/05/31 02:16:33;;;;;;;11.73;8.90;;;27.80;91.80;;;;;;5105275;28;20227;-56
2022/05/31 02:19:25;;;;;;;13.55;11.27;;;27.80;91.90;;;;;;5105515;28;20061;-57
2022/05/31 02:22:00;;;;;;;22.13;18.30;;;27.80;91.90;;;;;;5106137;28;20028;-58
2022/05/31 02:24:27;;;;;;;14.52;13.00;;;27.80;92.00;;;;;;5105829;28;20028;-57
2022/05/31 02:26:55;;;;;;;13.45;10.02;;;27.80;92.00;;;;;;5105274;28;20024;-58
2022/05/31 02:29:28;;;;;;;18.15;10.55;;;27.80;92.00;;;;;;5105647;28;20023;-58
2022/05/31 02:31:57;;;;;;;10.90;8.43;;;27.80;92.00;;;;;;5105606;28;20050;-56
2022/05/31 02:34:26;;;;;;;13.13;8.48;;;27.80;92.00;;;;;;5105013;28;20044;-58
2022/05/31 02:36:53;;;;;;;15.23;7.32;;;27.70;92.00;;;;;;5105346;28;20037;-58
2022/05/31 02:39:20;;;;;;;13.20;6.88;;;27.70;92.00;;;;;;5105159;28;20055;-57
2022/05/31 02:41:48;;;;;;;10.23;6.38;;;27.70;92.10;;;;;;5105074;28;20051;-55
2022/05/31 02:44:15;;;;;;;8.40;5.15;;;27.70;92.00;;;;;;5105147;28;20035;-58
2022/05/31 02:46:42;;;;;;;9.30;5.18;;;27.60;91.90;;;;;;5105444;28;20275;-57
2022/05/31 02:49:09;;;;;;;10.70;4.63;;;27.70;91.80;;;;;;5105307;28;20032;-55
2022/05/31 02:51:41;;;;;;;8.32;4.35;;;27.60;91.60;;;;;;5104994;28;20019;-56
2022/05/31 02:54:08;;;;;;;;;;;27.60;91.50;;;;;;5105972;28;20047;-56
2022/05/31 02:56:35;;;;;;;8.85;4.03;;;27.60;91.50;;;;;;5105146;28;19900;-57
2022/05/31 02:59:02;;;;;;;13.48;4.10;;;27.60;91.50;;;;;;5105310;28;20027;-56
2022/05/31 03:01:34;;;;;;;6.00;3.85;;;27.60;91.50;;;;;;5105049;28;20204;-56
2022/05/31 03:04:01;;;;;;;8.90;4.18;;;27.60;91.50;;;;;;5104792;28;20036;-58
2022/05/31 03:06:28;;;;;;;8.77;3.90;;;27.50;91.50;;;;;;5105097;28;20100;-59
2022/05/31 03:08:54;;;;;;;10.10;4.13;;;27.50;91.50;;;;;;5104926;28;20271;-58
2022/05/31 03:11:28;;;;;;;11.98;4.13;;;27.60;91.50;;;;;;5104585;28;20207;-57
2022/05/31 03:14:01;;;;;;;10.70;4.40;;;27.50;91.50;;;;;;5105224;28;20028;-59
2022/05/31 03:16:28;;;;;;;12.75;4.25;;;27.50;91.40;;;;;;5104808;28;20016;-57
2022/05/31 03:19:04;;;;;;;15.18;5.05;;;27.50;91.40;;;;;;5105185;28;20027;-58
2022/05/31 03:21:38;;;;;;;10.82;4.00;;;27.50;91.20;;;;;;5104552;28;20061;-58
2022/05/31 03:24:12;;;;;;;8.35;3.80;;;27.40;91.20;;;;;;5105270;28;20019;-56
2022/05/31 03:26:41;;;;;;;10.95;3.28;;;27.40;91.20;;;;;;5104418;28;20080;-57
2022/05/31 03:29:08;;;;;;;8.32;3.90;;;27.40;91.20;;;;;;5104557;28;20031;-55
2022/05/31 03:31:36;;;;;;;9.07;3.50;;;27.40;91.20;;;;;;5104608;28;20047;-58
2022/05/31 03:34:03;;;;;;;6.93;2.55;;;27.40;91.20;;;;;;5104766;28;20047;-57
2022/05/31 03:36:29;;;;;;;9.68;2.83;;;27.40;91.20;;;;;;5104670;28;20027;-57
2022/05/31 03:38:56;;;;;;;10.43;3.25;;;27.40;91.10;;;;;;5104919;28;20027;-56
2022/05/31 03:41:22;;;;;;;9.52;3.17;;;27.30;91.10;;;;;;5104804;28;20084;-56
2022/05/31 03:43:49;;;;;;;6.13;2.75;;;27.30;91.10;;;;;;5104571;28;20028;-59
2022/05/31 03:46:16;;;;;;;6.35;2.38;;;27.30;91.10;;;;;;5104568;28;20016;-56
2022/05/31 03:48:43;;;;;;;6.43;2.33;;;27.20;91.00;;;;;;5104939;28;20054;-58
2022/05/31 03:51:12;;;;;;;11.73;2.85;;;27.30;90.80;;;;;;5105010;28;20031;-57
2022/05/31 03:53:38;;;;;;;7.10;2.15;;;27.20;90.80;;;;;;5109014;28;20087;-59
2022/05/31 03:56:08;;;;;;;5.53;2.08;;;27.20;90.70;;;;;;5108478;28;20020;-56
2022/05/31 03:58:39;;;;;;;5.07;2.13;;;27.20;90.60;;;;;;5108612;28;20020;-57
2022/05/31 04:01:06;;;;;;;4.22;1.75;;;27.20;90.50;;;;;;5108385;28;20019;-57
2022/05/31 04:03:33;;;;;;;6.85;1.88;;;27.10;90.40;;;;;;5108511;28;20186;-55
2022/05/31 04:06:00;;;;;;;5.47;1.90;;;27.10;90.50;;;;;;5108440;28;20054;-56
2022/05/31 04:08:26;;;;;;;3.92;1.60;;;27.10;90.50;;;;;;5107703;28;20103;-55
2022/05/31 04:10:55;;;;;;;6.50;1.77;;;27.10;90.50;;;;;;5108254;28;20024;-55
2022/05/31 04:13:25;;;;;;;7.55;2.00;;;27.10;90.50;;;;;;5108376;28;20476;-56
2022/05/31 04:16:06;;;;;;;5.22;1.95;;;27.10;90.60;;;;;;5108344;28;20022;-58
2022/05/31 04:18:33;;;;;;;6.50;1.88;;;27.00;90.70;;;;;;5108184;28;20062;-57
2022/05/31 04:21:04;;;;;;;4.00;1.45;;;27.10;90.50;;;;;;5108182;28;20023;-59
2022/05/31 04:26:16;;;;;;;5.93;2.20;;;27.00;90.50;;;;;;5107805;28;20434;-57
2022/05/31 04:28:43;;;;;;;6.95;2.50;;;27.00;90.60;;;;;;5108175;28;20246;-55
2022/05/31 04:31:10;;;;;;;5.15;1.95;;;27.00;90.70;;;;;;5108099;28;20068;-59
2022/05/31 04:33:37;;;;;;;6.70;2.58;;;27.00;90.70;;;;;;5108170;28;20026;-56
2022/05/31 04:36:10;;;;;;;6.43;1.70;;;27.00;90.70;;;;;;5107573;28;20240;-56
2022/05/31 04:38:37;;;;;;;5.13;1.88;;;26.90;90.70;;;;;;5107513;28;20272;-55
2022/05/31 04:41:05;;;;;;;5.25;2.03;;;26.90;90.70;;;;;;5107768;28;20299;-57
2022/05/31 04:43:32;;;;;;;8.48;1.92;;;26.90;90.70;;;;;;5107690;28;20031;-56
2022/05/31 04:46:09;;;;;;;4.20;1.98;;;26.90;90.70;;;;;;5107772;28;20035;-61
2022/05/31 04:48:37;;;;;;;5.88;2.00;;;26.90;91.00;;;;;;5107205;28;20099;-57
2022/05/31 04:51:04;;;;;;;5.10;2.22;;;26.90;90.80;;;;;;5107160;28;20083;-56
2022/05/31 04:53:31;;;;;;;3.40;1.88;;;26.90;90.80;;;;;;5107829;28;20104;-56
2022/05/31 04:56:05;;;;;;;6.22;2.10;;;26.90;90.80;;;;;;5107442;28;20041;-59
2022/05/31 04:58:32;;;;;;;5.38;1.80;;;26.90;90.70;;;;;;5107384;28;20261;-59
2022/05/31 05:01:01;;;;;;;10.90;2.13;;;26.90;90.70;;;;;;5107543;28;20023;-57
2022/05/31 05:03:31;;;;;;;5.13;1.95;;;26.90;90.60;;;;;;5106865;28;20229;-56
2022/05/31 05:06:03;;;;;;;5.15;1.73;;;26.90;90.50;;;;;;5107327;28;20039;-56
2022/05/31 05:08:30;;;;;;;6.85;1.88;;;26.90;90.50;;;;;;5107368;28;20035;-57
2022/05/31 05:10:59;;;;;;;5.53;1.70;;;26.80;90.40;;;;;;5107268;28;20024;-60
2022/05/31 05:13:26;;;;;;;7.03;2.30;;;26.80;90.30;;;;;;5107357;28;20046;-61
2022/05/31 05:15:55;;;;;;;5.15;1.73;;;26.80;90.40;;;;;;5107313;28;20066;-58
2022/05/31 05:18:23;;;;;;;5.85;2.28;;;26.80;90.30;;;;;;5106977;28;20185;-59
2022/05/31 05:20:50;;;;;;;4.05;2.25;;;26.80;90.30;;;;;;5107152;28;20020;-57
2022/05/31 05:23:17;;;;;;;10.25;2.28;;;26.80;90.30;;;;;;5107220;28;20257;-59
2022/05/31 05:25:52;;;;;;;5.10;2.40;;;26.80;90.50;;;;;;5106709;28;20024;-61
2022/05/31 05:31:05;;;;;;;6.72;2.58;;;26.80;90.30;;;;;;5106810;28;20019;-57
2022/05/31 05:33:32;;;;;;;9.00;2.75;;;26.70;90.30;;;;;;5106579;28;20086;-56
2022/05/31 05:35:59;;;;;;;7.97;2.60;;;26.70;90.30;;;;;;5106654;28;20385;-57
2022/05/31 05:38:25;;;;;;;3.72;1.85;;;26.70;90.40;;;;;;5106669;28;20151;-55
2022/05/31 05:40:52;;;;;;;6.28;2.20;;;26.70;90.40;;;;;;5106627;28;20027;-57
2022/05/31 05:43:18;;;;;;;7.68;2.58;;;26.70;90.40;;;;;;5106866;28;20024;-55
2022/05/31 05:45:45;;;;;;;4.88;2.20;;;26.70;90.40;;;;;;5106593;28;20283;-54
2022/05/31 05:48:12;;;;;;;7.68;2.17;;;26.70;90.50;;;;;;5106439;28;20055;-56
2022/05/31 05:50:40;;;;;;;7.55;2.08;;;26.70;90.50;;;;;;5106098;28;20255;-56
2022/05/31 05:53:09;;;;;;;3.97;2.45;;;26.60;90.40;;;;;;5106429;28;20118;-56
2022/05/31 05:55:38;;;;;;;7.95;2.40;;;26.60;90.50;;;;;;5106539;28;20254;-56
2022/05/31 05:58:08;;;;;;;4.53;2.40;;;26.60;90.50;;;;;;5106540;28;20026;-59
2022/05/31 06:00:42;;;;;;;8.52;2.33;;;26.60;90.60;;;;;;5088794;28;20027;-56
2022/05/31 06:03:17;;;;;;;8.65;2.25;;;26.60;90.50;;;;;;5106410;28;20248;-55
2022/05/31 06:05:46;;;;;;;4.00;2.00;;;26.60;90.50;;;;;;5106151;28;20028;-56
2022/05/31 06:08:24;;;;;;;5.95;1.63;;;26.60;90.50;;;;;;5101758;28;20031;-58
2022/05/31 06:11:08;;;;;;;4.35;1.50;;;26.50;90.40;;;;;;5103779;28;20024;-56
2022/05/31 06:14:01;;;;;;;8.10;1.40;;;26.50;90.40;;;;;;5106326;28;20031;-59
2022/05/31 06:16:31;;;;;;;7.80;1.50;;;26.50;90.20;;;;;;5054532;28;20058;-57
2022/05/31 06:19:39;;;;;;;5.25;1.35;;;26.50;90.20;;;;;;5105777;28;20030;-56
2022/05/31 06:22:08;;;;;;;9.05;2.00;;;26.50;90.20;;;;;;5050193;28;20079;-56
2022/05/31 06:24:37;;;;;;;6.90;1.50;;;26.40;90.10;;;;;;5106241;28;20138;-56
2022/05/31 06:27:04;;;;;;;4.03;1.45;;;26.50;90.20;;;;;;5105905;28;20073;-57
2022/05/31 06:29:31;;;;;;;7.20;2.03;;;26.40;90.10;;;;;;5106103;28;20020;-58
2022/05/31 06:31:57;;;;;;;4.28;1.20;;;26.40;90.00;;;;;;5105731;28;20028;-57
2022/05/31 06:34:25;;;;;;;5.72;1.42;;;26.40;90.00;;;;;;5105595;28;20044;-57
2022/05/31 06:37:13;;;;;;;6.07;1.58;;;26.40;89.90;;;;;;5105782;28;20023;-56
2022/05/31 06:39:41;;;;;;;4.60;1.15;;;26.40;90.00;;;;;;5106031;28;20034;-58
2022/05/31 06:42:10;;;;;;;4.80;1.65;;;26.30;89.80;;;;;;5105668;28;20019;-56
2022/05/31 06:44:39;;;;;;;5.80;1.70;;;26.30;89.80;;;;;;5106142;28;20028;-52
2022/05/31 06:47:06;;;;;;;5.97;1.38;;;26.30;89.70;;;;;;5105655;28;20107;-56
2022/05/31 06:49:35;;;;;;;4.40;1.35;;;26.30;89.50;;;;;;5105721;28;20024;-58
2022/05/31 06:57:37;;;;;;;4.43;1.52;;;26.30;89.40;;;;;;5105384;28;20019;-56
2022/05/31 07:00:08;;;;;;;4.60;1.35;;;26.30;89.00;;;;;;5104523;28;20031;-56
2022/05/31 07:02:35;;;;;;;5.40;1.40;;;26.30;88.30;;;;;;5086830;28;20040;-58
2022/05/31 07:05:02;;;;;;;7.03;1.33;;;26.30;88.30;;;;;;5104652;28;20032;-56
2022/05/31 07:07:28;;;;;;;3.53;1.20;;;26.30;87.70;;;;;;5099011;28;20020;-59
2022/05/31 07:09:55;;;;;;;6.40;1.55;;;26.30;87.40;;;;;;5094567;28;20024;-56
2022/05/31 07:12:22;;;;;;;3.33;1.13;;;26.30;87.30;;;;;;5104155;28;20075;-54
2022/05/31 07:14:48;;;;;;;5.28;1.20;;;26.30;86.90;;;;;;5104623;28;20303;-60
2022/05/31 07:17:15;;;;;;;6.40;1.08;;;26.30;87.00;;;;;;5104083;28;20031;-57
2022/05/31 07:19:44;;;;;;;5.60;1.20;;;26.30;86.50;;;;;;5104584;28;20030;-55
2022/05/31 07:22:11;;;;;;;3.72;0.98;;;26.30;86.70;;;;;;5103969;28;20056;-55
2022/05/31 07:24:37;;;;;;;3.72;1.10;;;26.30;86.50;;;;;;5104431;28;20020;-53
2022/05/31 07:27:04;;;;;;;4.22;1.10;;;26.30;86.60;;;;;;5103588;28;20024;-53
2022/05/31 07:29:31;;;;;;;6.82;1.15;;;26.30;87.10;;;;;;5104533;28;20092;-61
2022/05/31 07:31:57;;;;;;;2.78;0.82;;;26.30;86.70;;;;;;5103946;28;20083;-55
2022/05/31 07:34:24;;;;;;;5.28;0.80;;;26.30;86.70;;;;;;5104143;28;20355;-52
2022/05/31 07:36:50;;;;;;;3.65;0.88;;;26.30;86.80;;;;;;5104007;28;20024;-52
2022/05/31 07:39:18;;;;;;;3.95;1.02;;;26.30;86.60;;;;;;5104181;28;20024;-57
2022/05/31 07:41:46;;;;;;;7.75;0.85;;;26.30;86.50;;;;;;5103857;28;20016;-55
2022/05/31 07:44:14;;;;;;;4.65;1.00;;;26.30;86.40;;;;;;5104263;28;20369;-56
2022/05/31 07:46:41;;;;;;;2.63;0.95;;;26.20;86.20;;;;;;5103933;28;20024;-51
2022/05/31 07:49:07;;;;;;;5.55;1.08;;;26.30;86.20;;;;;;5104094;28;20032;-56
2022/05/31 07:51:34;;;;;;;5.10;0.75;;;26.20;85.90;;;;;;5103532;28;20204;-55
2022/05/31 07:54:01;;;;;;;3.08;0.98;;;26.30;85.80;;;;;;5104242;28;20036;-55
2022/05/31 07:56:28;;;;;;;6.05;1.25;;;26.30;85.80;;;;;;5100462;28;20016;-56
2022/05/31 07:58:55;;;;;;;5.10;0.90;;;26.20;85.70;;;;;;5082801;28;20032;-55
2022/05/31 08:01:25;;;;;;;2.35;0.80;;;26.30;85.70;;;;;;5097507;28;20312;-54
2022/05/31 08:03:53;;;;;;;2.63;0.65;;;26.30;85.70;;;;;;5103553;28;20227;-55
2022/05/31 08:06:22;;;;;;;4.50;1.00;;;26.20;85.50;;;;;;5103555;28;20031;-56
2022/05/31 08:08:49;;;;;;;3.90;0.85;;;26.30;85.60;;;;;;5103671;28;20032;-53
2022/05/31 08:11:27;;;;;;;5.68;1.15;;;26.20;85.50;;;;;;5103701;28;20028;-57
2022/05/31 08:13:54;;;;;;;2.63;0.60;;;26.20;85.40;;;;;;5103905;28;20092;-59
2022/05/31 08:16:22;;;;;;;5.15;0.80;;;26.20;85.40;;;;;;5103463;28;20075;-55
2022/05/31 08:18:49;;;;;;;6.13;0.90;;;26.20;85.40;;;;;;5103730;28;20216;-57
2022/05/31 08:21:19;;;;;;;3.38;0.77;;;26.20;85.40;;;;;;5103618;28;20126;-56
2022/05/31 08:23:46;;;;;;;5.65;1.00;;;26.20;85.50;;;;;;5103594;28;20038;-57
2022/05/31 08:26:13;;;;;;;2.65;0.70;;;26.20;85.30;;;;;;5103487;28;20202;-55
2022/05/31 08:28:40;;;;;;;2.60;0.75;;;26.20;85.20;;;;;;5103914;28;20028;-60
2022/05/31 08:31:10;;;;;;;2.38;0.88;;;26.20;85.10;;;;;;5103198;28;20020;-58
2022/05/31 08:33:38;;;;;;;3.78;1.10;;;26.10;85.50;;;;;;5103505;28;20024;-55
2022/05/31 08:36:06;;;;;;;5.93;1.10;;;26.20;85.40;;;;;;5103208;28;20106;-54
2022/05/31 08:38:33;;;;;;;5.97;0.70;;;26.20;85.50;;;;;;5104647;28;20031;-56
2022/05/31 08:41:16;;;;;;;2.85;0.93;;;26.20;85.20;;;;;;5107050;28;20331;-55
2022/05/31 08:43:48;;;;;;;3.33;0.75;;;26.10;85.20;;;;;;5106876;28;20042;-56
2022/05/31 08:46:23;;;;;;;;;;;26.10;85.30;;;;;;5107408;28;20023;-54
2022/05/31 08:49:09;;;;;;;3.92;0.95;;;26.10;85.40;;;;;;5106757;28;19915;-56
2022/05/31 08:51:54;;;;;;;3.17;1.10;;;26.10;85.50;;;;;;5106917;28;20028;-56
2022/05/31 08:57:29;;;;;;;3.50;0.88;;;26.10;85.70;;;;;;5106654;28;20015;-58
2022/05/31 09:00:03;;;;;;;2.50;0.70;;;26.10;85.90;;;;;;5107398;28;20028;-52
2022/05/31 09:02:47;;;;;;;2.22;0.82;;;26.10;85.90;;;;;;5106530;28;20020;-55
2022/05/31 09:05:41;;;;;;;2.85;0.80;;;26.10;85.80;;;;;;5106409;28;20220;-56
2022/05/31 09:08:12;;;;;;;4.35;0.93;;;26.10;85.80;;;;;;5094539;28;20089;-54
2022/05/31 09:11:03;;;;;;;5.07;1.00;;;26.10;85.80;;;;;;5106267;28;20019;-59
2022/05/31 09:14:02;;;;;;;2.63;0.80;;;26.10;85.60;;;;;;5106581;28;20215;-54
2022/05/31 09:16:57;;;;;;;3.35;0.93;;;26.10;85.50;;;;;;5106206;28;20016;-55
2022/05/31 09:19:41;;;;;;;2.47;0.75;;;26.10;85.20;;;;;;5106495;28;20024;-56
2022/05/31 09:22:08;;;;;;;4.32;1.10;;;26.00;85.20;;;;;;5106153;28;20027;-53
2022/05/31 09:24:42;;;;;;;5.70;0.80;;;26.00;84.90;;;;;;5106548;28;20036;-56
2022/05/31 09:27:14;;;;;;;3.03;0.95;;;26.10;85.00;;;;;;5106007;28;20023;-53
2022/05/31 09:29:50;;;;;;;4.00;0.80;;;26.00;84.70;;;;;;5106452;28;20086;-58
2022/05/31 09:32:37;;;;;;;3.33;0.75;;;26.00;84.40;;;;;;5106128;28;20020;-52
2022/05/31 09:35:35;;;;;;;2.60;0.90;;;26.00;84.30;;;;;;5105827;28;20054;-55
2022/05/31 09:38:18;;;;;;;4.40;1.00;;;26.00;84.10;;;;;;5016439;28;20036;-53
2022/05/31 09:41:32;;;;;;;4.65;0.90;;;26.00;84.20;;;;;;5102914;28;20095;-53
2022/05/31 09:44:01;;;;;;;4.00;1.27;;;26.00;83.90;;;;;;5073410;28;20042;-54
2022/05/31 09:46:42;;;;;;;3.70;0.70;;;26.00;84.00;;;;;;5105853;28;20047;-55
2022/05/31 09:49:36;;;;;;;5.15;0.90;;;26.00;83.70;;;;;;5105773;28;20091;-54
2022/05/31 09:52:11;;;;;;;3.88;1.00;;;26.00;83.70;;;;;;5105310;28;20095;-51
2022/05/31 09:58:20;;;;;;;3.38;0.82;;;26.00;83.40;;;;;;5105610;28;20019;-56
2022/05/31 10:01:13;;;;;;;3.72;1.00;;;26.00;83.80;;;;;;5105465;28;20062;-55
2022/05/31 10:03:46;;;;;;;2.13;0.90;;;26.00;83.70;;;;;;5097356;28;20070;-54
2022/05/31 10:06:21;;;;;;;3.72;0.85;;;26.00;83.60;;;;;;5105219;28;20047;-52
2022/05/31 10:08:52;;;;;;;3.40;1.02;;;26.00;83.50;;;;;;5105395;28;20085;-53
2022/05/31 10:11:44;;;;;;;4.13;1.13;;;26.00;83.60;;;;;;5105089;28;20058;-58
2022/05/31 10:14:32;;;;;;;3.38;1.60;;;26.00;83.70;;;;;;5105292;28;20074;-55
2022/05/31 10:17:33;;;;;;;5.82;3.10;;;26.00;83.90;;;;;;5104975;28;20012;-54
2022/05/31 10:20:14;;;;;;;9.00;4.03;;;26.00;84.10;;;;;;5105520;28;20212;-54
2022/05/31 10:22:57;;;;;;;4.60;2.13;;;26.00;84.30;;;;;;5104588;28;20019;-55
2022/05/31 10:25:28;;;;;;;4.40;1.92;;;26.00;84.40;;;;;;5104885;28;20016;-52
2022/05/31 10:28:11;;;;;;;5.60;1.80;;;26.00;84.30;;;;;;5104680;28;20061;-56
2022/05/31 10:30:39;;;;;;;4.88;1.70;;;26.00;84.50;;;;;;5104742;28;20062;-54
2022/05/31 10:33:07;;;;;;;111.93;11.50;;;26.00;84.50;;;;;;5105168;28;20058;-57
2022/05/31 10:35:37;;;;;;;11.23;2.30;;;26.00;84.60;;;;;;5105051;28;20039;-56
2022/05/31 10:38:19;;;;;;;6.00;1.92;;;25.90;84.50;;;;;;5104885;28;20261;-53
2022/05/31 10:40:56;;;;;;;7.57;2.15;;;25.90;84.50;;;;;;5104666;28;20026;-54
2022/05/31 10:43:43;;;;;;;6.60;1.60;;;25.90;84.50;;;;;;5104892;28;20019;-54
2022/05/31 10:46:16;;;;;;;8.35;1.85;;;26.00;84.60;;;;;;5104647;28;20035;-54
2022/05/31 10:48:47;;;;;;;5.30;1.90;;;25.90;84.50;;;;;;5104767;28;20097;-55
2022/05/31 10:51:21;;;;;;;7.57;2.40;;;25.90;84.50;;;;;;5104220;28;20028;-58
2022/05/31 10:54:00;;;;;;;4.88;2.45;;;25.90;84.60;;;;;;5104548;28;20032;-53
2022/05/31 10:56:31;;;;;;;6.07;2.10;;;25.90;84.70;;;;;;5104566;28;20012;-58
2022/05/31 10:59:27;;;;;;;10.60;2.20;;;25.90;84.80;;;;;;5104428;28;20216;-51
2022/05/31 11:02:16;;;;;;;10.45;2.30;;;25.90;84.80;;;;;;5087974;28;20036;-55
2022/05/31 11:05:09;;;;;;;5.10;2.70;;;25.90;84.80;;;;;;5104602;28;20027;-55
2022/05/31 11:07:39;;;;;;;5.55;2.35;;;26.00;85.10;;;;;;5103729;28;20024;-55
2022/05/31 11:13:35;;;;;;;6.28;2.17;;;25.90;85.00;;;;;;5104132;28;20094;-55
2022/05/31 11:16:15;;;;;;;5.85;2.08;;;26.00;84.80;;;;;;5104211;28;20334;-55
2022/05/31 11:18:42;;;;;;;7.93;2.35;;;26.00;85.20;;;;;;5103900;28;20028;-56
2022/05/31 11:21:30;;;;;;;9.05;1.92;;;26.00;85.20;;;;;;5104443;28;20038;-50
2022/05/31 11:24:16;;;;;;;8.02;2.17;;;26.00;85.40;;;;;;5104381;28;20023;-58
2022/05/31 11:27:03;;;;;;;8.25;1.95;;;25.90;85.20;;;;;;5104053;28;20339;-52
2022/05/31 11:29:37;;;;;;;7.88;2.60;;;26.00;85.60;;;;;;5087477;28;20043;-55
2022/05/31 11:32:20;;;;;;;7.70;2.45;;;26.00;85.80;;;;;;5103779;28;20054;-52
2022/05/31 11:35:03;;;;;;;20.88;3.08;;;26.00;86.00;;;;;;5104257;28;20052;-51
2022/05/31 11:37:46;;;;;;;14.32;3.25;;;26.00;86.10;;;;;;5102937;28;20047;-62
2022/05/31 11:40:25;;;;;;;17.75;2.97;;;26.00;86.60;;;;;;5104081;28;20016;-56
2022/05/31 11:43:28;;;;;;;14.63;2.72;;;26.00;86.70;;;;;;5103933;28;20036;-57
2022/05/31 11:45:57;;;;;;;;;;;26.00;86.70;;;;;;5104198;28;20065;-56
2022/05/31 11:48:54;;;;;;;6.30;2.17;;;26.00;86.80;;;;;;5104040;28;19908;-56
2022/05/31 11:51:50;;;;;;;9.30;2.20;;;26.00;86.70;;;;;;5103880;28;20027;-56
2022/05/31 11:58:18;;;;;;;8.65;3.10;;;26.00;87.00;;;;;;5102937;28;20061;-54
2022/05/31 12:01:02;;;;;;;9.40;2.90;;;26.10;87.30;;;;;;5102147;28;20024;-56
2022/05/31 12:03:34;;;;;;;7.38;2.10;;;26.10;87.30;;;;;;5102169;28;20027;-57
2022/05/31 12:06:16;;;;;;;6.90;2.17;;;26.10;87.20;;;;;;5102068;28;20020;-55
2022/05/31 12:09:00;;;;;;;28.02;25.45;;;26.10;87.30;;;;;;5102433;28;20024;-54
2022/05/31 12:11:37;;;;;;;20.25;10.32;;;26.10;87.40;;;;;;5100816;28;20024;-55
2022/05/31 12:14:05;;;;;;;11.10;6.78;;;26.10;87.60;;;;;;5106124;28;20016;-54
2022/05/31 12:16:33;;;;;;;10.43;4.88;;;26.20;87.70;;;;;;5107821;28;20031;-55
2022/05/31 12:19:28;;;;;;;7.68;4.32;;;26.20;87.50;;;;;;5107654;28;20027;-57
2022/05/31 12:22:28;;;;;;;8.13;3.25;;;26.20;87.50;;;;;;5063642;28;20024;-55
2022/05/31 12:25:05;;;;;;;5.47;3.67;;;26.20;87.70;;;;;;5046308;28;20210;-57
2022/05/31 12:27:49;;;;;;;4.40;2.83;;;26.20;87.60;;;;;;5107204;28;20096;-57
2022/05/31 12:30:29;;;;;;;5.03;2.78;;;26.30;87.60;;;;;;5107341;28;20028;-57
2022/05/31 12:32:55;;;;;;;4.43;2.28;;;26.30;87.30;;;;;;5104947;28;20379;-54
2022/05/31 12:35:31;;;;;;;7.68;2.58;;;26.30;87.40;;;;;;5100698;28;20040;-56
2022/05/31 12:38:01;;;;;;;6.30;2.28;;;26.30;87.20;;;;;;5107412;28;20008;-55
2022/05/31 12:40:33;;;;;;;6.18;2.10;;;26.40;87.50;;;;;;5106781;28;20020;-54
2022/05/31 12:43:02;;;;;;;5.53;1.90;;;26.40;87.40;;;;;;5089185;28;20024;-56
2022/05/31 12:45:34;;;;;;;5.68;1.90;;;26.40;87.60;;;;;;5086965;28;20008;-54
2022/05/31 12:48:12;;;;;;;3.70;2.00;;;26.50;87.90;;;;;;5106532;28;20036;-56
2022/05/31 12:50:57;;;;;;;4.70;1.80;;;26.50;87.80;;;;;;5107143;28;20041;-59
2022/05/31 12:53:43;;;;;;;3.78;1.42;;;26.50;87.60;;;;;;5107236;28;20024;-56
2022/05/31 12:56:32;;;;;;;3.75;1.38;;;26.60;87.50;;;;;;5106694;28;20020;-55
2022/05/31 12:59:00;;;;;;;4.60;1.38;;;26.60;87.40;;;;;;5084249;28;20103;-55
2022/05/31 13:01:27;;;;;;;4.28;1.30;;;26.60;87.30;;;;;;5106785;28;20204;-55
2022/05/31 13:04:08;;;;;;;4.05;1.50;;;26.60;87.30;;;;;;5107038;28;20028;-59
2022/05/31 13:07:00;;;;;;;6.70;1.73;;;26.70;87.50;;;;;;5106504;28;20308;-55
2022/05/31 13:09:26;;;;;;;3.88;1.60;;;26.70;87.20;;;;;;5096736;28;20109;-63
2022/05/31 13:21:03;;;;;;;5.07;1.60;;;26.80;87.20;;;;;;5092465;28;20019;-55
2022/05/31 13:23:41;;;;;;;3.70;1.50;;;26.90;87.40;;;;;;5072323;28;20204;-53
2022/05/31 13:26:24;;;;;;;5.93;1.50;;;26.90;87.40;;;;;;5085967;28;20020;-56
2022/05/31 13:29:07;;;;;;;3.33;1.15;;;26.90;87.40;;;;;;5086222;28;20032;-55
2022/05/31 13:31:45;;;;;;;3.15;1.30;;;27.00;87.50;;;;;;5088713;28;20020;-57
2022/05/31 13:34:26;;;;;;;3.75;1.15;;;27.00;87.40;;;;;;5087706;28;20332;-57
2022/05/31 13:36:53;;;;;;;2.28;1.20;;;27.00;87.20;;;;;;5088379;28;20025;-57
2022/05/31 13:39:20;;;;;;;3.15;1.30;;;27.00;87.30;;;;;;5099673;28;20028;-56
2022/05/31 13:41:57;;;;;;;3.35;1.27;;;27.10;87.50;;;;;;5086973;28;20027;-56
2022/05/31 13:44:34;;;;;;;3.97;1.20;;;27.10;87.70;;;;;;5105754;28;20028;-55
2022/05/31 13:47:06;;;;;;;3.67;1.38;;;27.20;87.70;;;;;;5095341;28;20028;-58
2022/05/31 13:49:46;;;;;;;5.45;1.27;;;27.20;87.60;;;;;;5106070;28;20064;-59